createdAt,value
2023-05-08T00:00:45.893Z,37.04
2023-05-08T00:01:45.939Z,37.16
2023-05-08T00:02:46.098Z,37.10
2023-05-08T00:03:46.239Z,37.12
2023-05-08T00:04:46.113Z,37.18
2023-05-08T00:05:46.160Z,37.22
2023-05-08T00:06:46.185Z,37.15
2023-05-08T00:07:46.222Z,37.13
2023-05-08T00:08:46.321Z,37.07
2023-05-08T00:09:46.312Z,37.11
2023-05-08T00:10:46.351Z,37.14
2023-05-08T00:11:46.427Z,37.14
2023-05-08T00:12:46.497Z,37.10
2023-05-08T00:13:46.520Z,37.09
2023-05-08T00:14:46.545Z,37.08
2023-05-08T00:15:46.568Z,37.01
2023-05-08T00:16:46.640Z,37.00
2023-05-08T00:17:46.622Z,37.09
2023-05-08T00:18:46.666Z,37.02
2023-05-08T00:19:46.699Z,36.98
2023-05-08T00:20:46.740Z,36.90
2023-05-08T00:21:46.776Z,36.88
2023-05-08T00:22:46.825Z,36.96
2023-05-08T00:23:46.837Z,36.91
2023-05-08T00:24:46.895Z,36.90
2023-05-08T00:25:46.893Z,36.81
2023-05-08T00:26:46.938Z,36.70
2023-05-08T00:27:47.675Z,36.66
2023-05-08T00:28:47.033Z,36.64
2023-05-08T00:29:47.065Z,36.59
2023-05-08T00:30:47.068Z,36.52
2023-05-08T00:31:47.156Z,36.45
2023-05-08T00:32:47.197Z,36.49
2023-05-08T00:33:47.146Z,36.39
2023-05-08T00:34:47.161Z,36.36
2023-05-08T00:35:47.204Z,36.27
2023-05-08T00:36:47.259Z,36.28
2023-05-08T00:37:47.267Z,36.22
2023-05-08T00:38:47.277Z,36.32
2023-05-08T00:39:47.273Z,36.32
2023-05-08T00:40:47.383Z,36.37
2023-05-08T00:41:47.324Z,36.58
2023-05-08T00:42:47.400Z,36.69
2023-05-08T00:43:47.408Z,36.71
2023-05-08T00:44:47.439Z,36.76
2023-05-08T00:45:47.491Z,36.85
2023-05-08T00:46:47.515Z,36.82
2023-05-08T00:47:47.589Z,36.87
2023-05-08T00:48:47.593Z,36.96
2023-05-08T00:49:47.586Z,36.93
2023-05-08T00:50:47.631Z,36.85
2023-05-08T00:51:47.671Z,36.77
2023-05-08T00:52:47.704Z,36.72
2023-05-08T00:53:47.740Z,36.73
2023-05-08T00:54:47.799Z,36.69
2023-05-08T00:55:47.811Z,36.66
2023-05-08T00:56:47.840Z,36.61
2023-05-08T00:57:47.839Z,36.47
2023-05-08T00:58:47.874Z,36.42
2023-05-08T00:59:47.938Z,36.47
2023-05-08T01:00:47.962Z,36.51
2023-05-08T01:01:48.018Z,36.51
2023-05-08T01:02:48.164Z,36.47
2023-05-08T01:03:48.247Z,36.46
2023-05-08T01:04:48.078Z,36.38
2023-05-08T01:05:48.102Z,36.45
2023-05-08T01:06:48.143Z,36.33
2023-05-08T01:07:48.167Z,36.40
2023-05-08T01:08:48.248Z,36.26
2023-05-08T01:09:48.234Z,36.21
2023-05-08T01:10:48.293Z,36.15
2023-05-08T01:11:48.282Z,36.13
2023-05-08T01:12:48.373Z,36.12
2023-05-08T01:13:48.360Z,36.14
2023-05-08T01:14:48.385Z,36.11
2023-05-08T01:15:48.407Z,36.03
2023-05-08T01:16:48.418Z,36.04
2023-05-08T01:17:48.452Z,35.99
2023-05-08T01:18:48.430Z,35.93
2023-05-08T01:19:48.486Z,36.00
2023-05-08T01:20:48.480Z,35.98
2023-05-08T01:21:48.480Z,35.92
2023-05-08T01:22:48.517Z,35.88
2023-05-08T01:23:48.557Z,35.76
2023-05-08T01:24:48.528Z,35.83
2023-05-08T01:25:48.535Z,35.86
2023-05-08T01:26:48.594Z,35.79
2023-05-08T01:27:48.560Z,35.81
2023-05-08T01:28:48.597Z,35.86
2023-05-08T01:29:48.610Z,35.92
2023-05-08T01:30:48.622Z,35.96
2023-05-08T01:31:48.622Z,36.00
2023-05-08T01:32:48.631Z,35.92
2023-05-08T01:33:48.660Z,35.93
2023-05-08T01:34:48.652Z,35.89
2023-05-08T01:35:48.663Z,35.89
2023-05-08T01:36:48.686Z,36.01
2023-05-08T01:37:48.693Z,36.04
2023-05-08T01:38:48.735Z,35.93
2023-05-08T01:39:48.713Z,35.97
2023-05-08T01:40:48.746Z,36.01
2023-05-08T01:41:48.777Z,36.06
2023-05-08T01:42:48.798Z,36.12
2023-05-08T01:43:48.853Z,36.16
2023-05-08T01:44:48.879Z,36.20
2023-05-08T01:45:48.849Z,36.26
2023-05-08T01:46:48.968Z,36.29
2023-05-08T01:47:48.998Z,36.32
2023-05-08T01:48:48.951Z,36.25
2023-05-08T01:49:48.968Z,36.33
2023-05-08T01:50:48.990Z,36.38
2023-05-08T01:51:49.089Z,36.45
2023-05-08T01:52:49.101Z,36.38
2023-05-08T01:53:49.118Z,36.37
2023-05-08T01:54:49.127Z,36.31
2023-05-08T01:55:49.193Z,36.34
2023-05-08T01:56:49.215Z,36.41
2023-05-08T01:57:49.213Z,36.34
2023-05-08T01:58:49.264Z,36.27
2023-05-08T01:59:49.274Z,36.18
2023-05-08T02:00:49.320Z,36.21
2023-05-08T02:01:49.319Z,36.21
2023-05-08T02:02:49.449Z,36.16
2023-05-08T02:03:49.403Z,36.12
2023-05-08T02:04:49.323Z,36.12
2023-05-08T02:05:49.371Z,36.08
2023-05-08T02:06:49.372Z,36.09
2023-05-08T02:07:49.389Z,36.02
2023-05-08T02:08:49.387Z,36.04
2023-05-08T02:09:49.439Z,35.96
2023-05-08T02:10:49.477Z,35.98
2023-05-08T02:11:49.455Z,36.04
2023-05-08T02:12:49.474Z,36.01
2023-05-08T02:13:49.444Z,36.02
2023-05-08T02:14:49.478Z,36.00
2023-05-08T02:15:49.502Z,35.90
2023-05-08T02:16:49.589Z,35.91
2023-05-08T02:17:49.576Z,36.01
2023-05-08T02:18:49.552Z,36.01
2023-05-08T02:19:49.545Z,35.97
2023-05-08T02:20:49.553Z,35.91
2023-05-08T02:21:49.552Z,35.94
2023-05-08T02:22:49.597Z,35.98
2023-05-08T02:23:49.588Z,35.87
2023-05-08T02:24:49.584Z,35.96
2023-05-08T02:25:49.609Z,35.96
2023-05-08T02:26:49.668Z,36.00
2023-05-08T02:27:49.664Z,35.94
2023-05-08T02:28:49.677Z,35.95
2023-05-08T02:29:49.642Z,36.00
2023-05-08T02:30:49.652Z,36.05
2023-05-08T02:31:49.682Z,36.07
2023-05-08T02:32:49.723Z,36.05
2023-05-08T02:33:49.726Z,36.04
2023-05-08T02:35:01.876Z,36.05
2023-05-08T02:35:50.779Z,36.09
2023-05-08T02:36:49.707Z,36.13
2023-05-08T02:37:49.678Z,36.11
2023-05-08T02:38:49.632Z,36.23
2023-05-08T02:39:49.626Z,36.22
2023-05-08T02:40:49.588Z,36.20
2023-05-08T02:41:49.556Z,36.31
2023-05-08T02:42:49.573Z,36.27
2023-05-08T02:43:49.537Z,36.28
2023-05-08T02:44:49.482Z,36.32
2023-05-08T02:45:49.531Z,36.32
2023-05-08T02:46:49.452Z,36.34
2023-05-08T02:47:49.464Z,36.30
2023-05-08T02:48:49.420Z,36.34
2023-05-08T02:49:49.408Z,36.35
2023-05-08T02:50:49.444Z,36.42
2023-05-08T02:51:49.473Z,36.47
2023-05-08T02:52:49.492Z,36.47
2023-05-08T02:53:49.491Z,36.48
2023-05-08T02:54:49.544Z,36.47
2023-05-08T02:55:49.608Z,36.57
2023-05-08T02:56:49.627Z,36.46
2023-05-08T02:57:49.617Z,36.53
2023-05-08T02:58:49.700Z,36.66
2023-05-08T02:59:49.704Z,36.57
2023-05-08T03:00:49.729Z,36.55
2023-05-08T03:01:49.828Z,36.62
2023-05-08T03:02:49.881Z,36.53
2023-05-08T03:03:49.922Z,36.53
2023-05-08T03:04:49.812Z,36.49
2023-05-08T03:05:49.832Z,36.52
2023-05-08T03:06:49.864Z,36.50
2023-05-08T03:07:49.859Z,36.46
2023-05-08T03:08:49.895Z,36.43
2023-05-08T03:09:49.903Z,36.40
2023-05-08T03:10:49.924Z,36.40
2023-05-08T03:11:49.927Z,36.38
2023-05-08T03:12:49.955Z,36.34
2023-05-08T03:13:49.961Z,36.34
2023-05-08T03:14:49.967Z,36.21
2023-05-08T03:15:49.999Z,36.16
2023-05-08T03:16:49.978Z,36.12
2023-05-08T03:17:50.048Z,36.17
2023-05-08T03:18:50.004Z,36.17
2023-05-08T03:19:50.021Z,36.08
2023-05-08T03:20:50.047Z,36.09
2023-05-08T03:21:50.085Z,36.06
2023-05-08T03:22:50.069Z,36.08
2023-05-08T03:23:50.074Z,36.03
2023-05-08T03:24:50.055Z,36.02
2023-05-08T03:25:50.109Z,36.02
2023-05-08T03:26:50.088Z,36.04
2023-05-08T03:27:50.105Z,36.00
2023-05-08T03:28:50.112Z,36.04
2023-05-08T03:29:50.117Z,35.98
2023-05-08T03:30:50.102Z,35.97
2023-05-08T03:31:50.207Z,35.96
2023-05-08T03:32:50.175Z,36.00
2023-05-08T03:33:50.155Z,35.92
2023-05-08T03:34:50.120Z,35.99
2023-05-08T03:35:50.156Z,35.98
2023-05-08T03:36:50.109Z,35.97
2023-05-08T03:37:50.093Z,35.95
2023-05-08T03:38:50.091Z,35.99
2023-05-08T03:39:50.136Z,35.95
2023-05-08T03:40:50.139Z,35.96
2023-05-08T03:41:50.134Z,35.91
2023-05-08T03:42:50.176Z,35.96
2023-05-08T03:43:50.142Z,35.94
2023-05-08T03:44:50.128Z,35.91
2023-05-08T03:45:50.145Z,35.83
2023-05-08T03:46:50.173Z,35.81
2023-05-08T03:47:50.189Z,35.81
2023-05-08T03:48:50.139Z,35.77
2023-05-08T03:49:50.131Z,35.83
2023-05-08T03:50:50.123Z,35.80
2023-05-08T03:51:50.110Z,35.78
2023-05-08T03:52:50.122Z,35.80
2023-05-08T03:53:50.139Z,35.77
2023-05-08T03:54:50.157Z,35.64
2023-05-08T03:55:50.147Z,35.67
2023-05-08T03:56:50.114Z,35.71
2023-05-08T03:57:50.194Z,35.75
2023-05-08T03:58:50.152Z,35.78
2023-05-08T03:59:50.136Z,35.77
2023-05-08T04:00:50.117Z,35.72
2023-05-08T04:01:50.160Z,35.77
2023-05-08T04:02:50.182Z,35.71
2023-05-08T04:03:50.225Z,35.76
2023-05-08T04:04:50.132Z,35.76
2023-05-08T04:05:50.088Z,35.76
2023-05-08T04:06:50.956Z,35.76
2023-05-08T04:07:50.113Z,35.72
2023-05-08T04:08:50.082Z,35.70
2023-05-08T04:09:50.084Z,35.72
2023-05-08T04:10:50.093Z,35.67
2023-05-08T04:11:50.061Z,35.60
2023-05-08T04:12:50.110Z,35.63
2023-05-08T04:13:50.069Z,35.61
2023-05-08T04:14:50.057Z,35.55
2023-05-08T04:15:50.058Z,35.54
2023-05-08T04:16:50.100Z,35.54
2023-05-08T04:17:50.186Z,35.62
2023-05-08T04:18:50.081Z,35.58
2023-05-08T04:19:50.050Z,35.65
2023-05-08T04:20:50.059Z,35.65
2023-05-08T04:21:51.002Z,35.55
2023-05-08T04:22:50.081Z,35.50
2023-05-08T04:23:50.100Z,35.55
2023-05-08T04:24:50.093Z,35.62
2023-05-08T04:25:50.082Z,35.62
2023-05-08T04:26:50.087Z,35.58
2023-05-08T04:27:50.073Z,35.60
2023-05-08T04:28:50.105Z,35.61
2023-05-08T04:29:50.093Z,35.61
2023-05-08T04:30:50.095Z,35.60
2023-05-08T04:31:50.157Z,35.64
2023-05-08T04:32:50.153Z,35.62
2023-05-08T04:33:50.140Z,35.63
2023-05-08T04:34:50.174Z,35.72
2023-05-08T04:35:50.145Z,35.71
2023-05-08T04:36:50.156Z,35.79
2023-05-08T04:37:50.167Z,35.85
2023-05-08T04:38:50.190Z,35.90
2023-05-08T04:39:50.201Z,35.95
2023-05-08T04:40:50.231Z,35.93
2023-05-08T04:41:50.311Z,35.98
2023-05-08T04:42:50.310Z,36.03
2023-05-08T04:43:50.280Z,36.08
2023-05-08T04:44:50.373Z,36.11
2023-05-08T04:45:50.380Z,36.15
2023-05-08T04:46:50.361Z,36.11
2023-05-08T04:47:50.479Z,36.13
2023-05-08T04:48:50.435Z,36.15
2023-05-08T04:49:50.440Z,36.08
2023-05-08T04:50:50.443Z,36.00
2023-05-08T04:51:50.485Z,36.02
2023-05-08T04:52:50.505Z,36.13
2023-05-08T04:53:50.518Z,36.10
2023-05-08T04:54:50.520Z,36.07
2023-05-08T04:55:50.538Z,36.06
2023-05-08T04:56:50.544Z,36.06
2023-05-08T04:57:50.553Z,36.06
2023-05-08T04:58:50.582Z,36.09
2023-05-08T04:59:50.581Z,36.04
2023-05-08T05:00:57.607Z,36.03
2023-05-08T05:01:50.590Z,35.98
2023-05-08T05:02:50.582Z,35.99
2023-05-08T05:03:50.609Z,35.93
2023-05-08T05:04:50.517Z,35.91
2023-05-08T05:05:50.529Z,35.93
2023-05-08T05:06:50.505Z,35.94
2023-05-08T05:07:51.019Z,35.94
2023-05-08T05:08:50.482Z,35.94
2023-05-08T05:09:50.485Z,35.95
2023-05-08T05:10:50.436Z,35.92
2023-05-08T05:11:50.398Z,35.93
2023-05-08T05:12:50.447Z,35.99
2023-05-08T05:13:50.414Z,36.07
2023-05-08T05:14:50.345Z,36.15
2023-05-08T05:15:50.401Z,36.07
2023-05-08T05:16:50.340Z,36.05
2023-05-08T05:17:50.428Z,36.22
2023-05-08T05:18:50.289Z,36.18
2023-05-08T05:19:51.580Z,36.17
2023-05-08T05:20:50.245Z,36.11
2023-05-08T05:21:50.221Z,36.21
2023-05-08T05:22:50.228Z,36.21
2023-05-08T05:23:50.188Z,36.18
2023-05-08T05:24:50.163Z,36.15
2023-05-08T05:25:50.158Z,36.08
2023-05-08T05:26:50.190Z,36.12
2023-05-08T05:27:50.134Z,36.07
2023-05-08T05:28:50.095Z,36.10
2023-05-08T05:29:50.082Z,36.09
2023-05-08T05:30:50.102Z,36.05
2023-05-08T05:31:50.075Z,36.32
2023-05-08T05:32:50.217Z,36.40
2023-05-08T05:33:50.037Z,36.59
2023-05-08T05:34:50.005Z,36.87
2023-05-08T05:35:50.013Z,37.46
2023-05-08T05:36:50.028Z,37.50
2023-05-08T05:37:49.948Z,37.61
2023-05-08T05:38:50.097Z,37.58
2023-05-08T05:39:49.935Z,37.81
2023-05-08T05:40:49.900Z,38.51
2023-05-08T05:41:50.911Z,38.17
2023-05-08T05:42:49.851Z,38.43
2023-05-08T05:43:49.831Z,38.86
2023-05-08T05:44:49.913Z,38.73
2023-05-08T05:45:56.969Z,38.99
2023-05-08T05:46:49.867Z,38.89
2023-05-08T05:47:50.108Z,38.98
2023-05-08T05:48:50.054Z,39.47
2023-05-08T05:49:49.816Z,39.43
2023-05-08T05:50:49.782Z,38.80
2023-05-08T05:51:49.806Z,38.89
2023-05-08T05:52:49.733Z,38.91
2023-05-08T05:53:49.825Z,39.26
2023-05-08T05:54:49.693Z,39.09
2023-05-08T05:55:49.688Z,38.78
2023-05-08T05:56:49.654Z,39.36
2023-05-08T05:57:49.666Z,39.20
2023-05-08T05:58:49.678Z,39.03
2023-05-08T05:59:49.628Z,39.52
2023-05-08T06:00:49.758Z,39.49
2023-05-08T06:01:49.692Z,39.45
2023-05-08T06:02:49.757Z,39.10
2023-05-08T06:03:49.715Z,38.96
2023-05-08T06:04:49.522Z,38.83
2023-05-08T06:05:49.515Z,38.75
2023-05-08T06:06:49.487Z,38.89
2023-05-08T06:07:49.539Z,38.94
2023-05-08T06:08:49.476Z,38.73
2023-05-08T06:09:49.576Z,38.97
2023-05-08T06:10:49.467Z,38.72
2023-05-08T06:11:49.454Z,38.79
2023-05-08T06:12:49.454Z,39.09
2023-05-08T06:13:50.575Z,38.94
2023-05-08T06:14:49.421Z,38.93
2023-05-08T06:15:49.387Z,39.07
2023-05-08T06:16:49.357Z,39.05
2023-05-08T06:17:49.416Z,39.21
2023-05-08T06:18:49.340Z,39.18
2023-05-08T06:19:49.334Z,38.76
2023-05-08T06:20:49.367Z,39.01
2023-05-08T06:21:49.253Z,39.20
2023-05-08T06:22:49.259Z,39.25
2023-05-08T06:23:49.353Z,39.28
2023-05-08T06:24:49.748Z,38.05
2023-05-08T06:25:50.358Z,37.71
2023-05-08T06:26:49.212Z,37.62
2023-05-08T06:27:49.206Z,37.46
2023-05-08T06:28:49.166Z,37.80
2023-05-08T06:29:49.173Z,38.25
2023-05-08T06:30:49.137Z,38.03
2023-05-08T06:31:49.152Z,38.15
2023-05-08T06:32:49.244Z,38.24
2023-05-08T06:33:49.261Z,38.16
2023-05-08T06:34:49.331Z,37.93
2023-05-08T06:35:49.296Z,38.18
2023-05-08T06:36:49.301Z,37.44
2023-05-08T06:37:49.229Z,37.60
2023-05-08T06:38:49.298Z,38.21
2023-05-08T06:39:57.203Z,38.32
2023-05-08T06:40:50.218Z,38.17
2023-05-08T06:41:49.179Z,38.76
2023-05-08T06:42:49.159Z,39.03
2023-05-08T06:43:49.163Z,39.10
2023-05-08T06:44:49.581Z,38.51
2023-05-08T06:45:49.133Z,38.53
2023-05-08T06:46:49.343Z,38.56
2023-05-08T06:47:49.219Z,38.21
2023-05-08T06:48:49.141Z,38.49
2023-05-08T06:49:49.194Z,38.75
2023-05-08T06:50:49.135Z,38.78
2023-05-08T06:51:49.126Z,38.94
2023-05-08T06:52:50.103Z,39.16
2023-05-08T06:53:49.059Z,39.26
2023-05-08T06:54:49.172Z,39.21
2023-05-08T06:55:49.106Z,38.84
2023-05-08T06:56:49.031Z,39.41
2023-05-08T06:57:49.027Z,39.18
2023-05-08T06:58:57.136Z,39.21
2023-05-08T06:59:51.088Z,39.18
2023-05-08T07:00:49.005Z,39.39
2023-05-08T07:01:48.993Z,39.37
2023-05-08T07:02:49.018Z,39.09
2023-05-08T07:03:48.947Z,39.16
2023-05-08T07:04:49.228Z,39.42
2023-05-08T07:05:48.974Z,39.60
2023-05-08T07:06:48.925Z,39.90
2023-05-08T07:07:48.942Z,39.68
2023-05-08T07:08:48.973Z,39.78
2023-05-08T07:09:49.058Z,39.70
2023-05-08T07:10:49.099Z,39.41
2023-05-08T07:11:49.282Z,39.70
2023-05-08T07:12:49.247Z,39.90
2023-05-08T07:13:49.245Z,39.96
2023-05-08T07:14:49.294Z,39.81
2023-05-08T07:15:50.334Z,39.70
2023-05-08T07:16:49.282Z,39.60
2023-05-08T07:17:49.319Z,39.89
2023-05-08T07:18:49.269Z,40.16
2023-05-08T07:19:49.242Z,40.50
2023-05-08T07:20:49.273Z,40.17
2023-05-08T07:21:49.312Z,39.83
2023-05-08T07:22:49.337Z,39.70
2023-05-08T07:23:49.228Z,39.72
2023-05-08T07:24:49.610Z,39.82
2023-05-08T07:25:49.298Z,39.62
2023-05-08T07:26:49.377Z,39.47
2023-05-08T07:27:49.386Z,39.55
2023-05-08T07:28:49.440Z,39.59
2023-05-08T07:29:49.497Z,39.91
2023-05-08T07:30:49.538Z,39.42
2023-05-08T07:31:49.649Z,39.44
2023-05-08T07:32:49.683Z,39.50
2023-05-08T07:33:49.665Z,39.55
2023-05-08T07:34:50.265Z,39.68
2023-05-08T07:35:49.764Z,39.41
2023-05-08T07:36:49.804Z,39.36
2023-05-08T07:37:49.815Z,39.58
2023-05-08T07:38:49.892Z,39.32
2023-05-08T07:39:49.895Z,38.98
2023-05-08T07:40:49.962Z,38.90
2023-05-08T07:41:50.116Z,38.95
2023-05-08T07:42:50.049Z,39.17
2023-05-08T07:43:50.035Z,38.82
2023-05-08T07:44:54.434Z,38.86
2023-05-08T07:45:51.028Z,38.55
2023-05-08T07:46:50.115Z,38.33
2023-05-08T07:47:50.077Z,38.57
2023-05-08T07:48:50.015Z,38.25
2023-05-08T07:49:49.979Z,38.77
2023-05-08T07:50:49.959Z,39.08
2023-05-08T07:51:49.921Z,39.16
2023-05-08T07:52:50.505Z,38.92
2023-05-08T07:53:49.950Z,39.09
2023-05-08T07:54:50.169Z,38.96
2023-05-08T07:55:49.859Z,38.93
2023-05-08T07:56:49.874Z,38.84
2023-05-08T07:57:49.868Z,38.77
2023-05-08T07:58:49.801Z,38.61
2023-05-08T07:59:49.827Z,38.84
2023-05-08T08:00:49.788Z,38.51
2023-05-08T08:01:49.747Z,38.43
2023-05-08T08:02:49.950Z,38.36
2023-05-08T08:03:49.812Z,38.34
2023-05-08T08:04:49.725Z,38.40
2023-05-08T08:05:50.132Z,38.32
2023-05-08T08:06:49.723Z,38.05
2023-05-08T08:07:49.737Z,38.14
2023-05-08T08:08:49.801Z,38.17
2023-05-08T08:09:49.725Z,38.21
2023-05-08T08:10:49.730Z,38.44
2023-05-08T08:11:49.731Z,38.42
2023-05-08T08:12:49.742Z,38.54
2023-05-08T08:13:49.700Z,38.47
2023-05-08T08:14:49.724Z,38.48
2023-05-08T08:15:49.758Z,38.36
2023-05-08T08:16:49.795Z,38.24
2023-05-08T08:17:49.748Z,38.60
2023-05-08T08:18:49.816Z,38.40
2023-05-08T08:19:49.784Z,38.30
2023-05-08T08:20:50.180Z,38.21
2023-05-08T08:21:49.813Z,38.39
2023-05-08T08:22:49.840Z,38.50
2023-05-08T08:23:49.821Z,38.36
2023-05-08T08:24:50.211Z,38.29
2023-05-08T08:25:49.860Z,38.40
2023-05-08T08:26:50.558Z,38.37
2023-05-08T08:27:49.910Z,38.25
2023-05-08T08:28:49.893Z,38.20
2023-05-08T08:29:51.167Z,38.10
2023-05-08T08:30:50.185Z,38.10
2023-05-08T08:31:49.842Z,38.62
2023-05-08T08:32:49.901Z,38.55
2023-05-08T08:33:49.811Z,38.51
2023-05-08T08:34:49.765Z,38.61
2023-05-08T08:35:50.154Z,38.38
2023-05-08T08:36:49.727Z,38.45
2023-05-08T08:37:49.706Z,38.43
2023-05-08T08:38:49.652Z,38.62
2023-05-08T08:39:49.646Z,38.40
2023-05-08T08:40:49.732Z,38.31
2023-05-08T08:41:49.563Z,38.43
2023-05-08T08:42:49.568Z,38.37
2023-05-08T08:43:49.507Z,38.28
2023-05-08T08:44:49.476Z,38.10
2023-05-08T08:45:49.667Z,38.51
2023-05-08T08:46:49.467Z,38.44
2023-05-08T08:47:49.454Z,38.54
2023-05-08T08:48:49.345Z,38.20
2023-05-08T08:49:49.317Z,38.24
2023-05-08T08:50:49.317Z,38.04
2023-05-08T08:51:49.270Z,38.28
2023-05-08T08:52:49.225Z,38.39
2023-05-08T08:53:49.188Z,38.13
2023-05-08T08:54:49.137Z,37.97
2023-05-08T08:55:49.139Z,37.84
2023-05-08T08:56:49.180Z,37.91
2023-05-08T08:57:49.056Z,37.97
2023-05-08T08:58:49.070Z,38.13
2023-05-08T08:59:50.109Z,37.95
2023-05-08T09:00:49.044Z,38.24
2023-05-08T09:01:49.052Z,38.39
2023-05-08T09:02:48.948Z,37.76
2023-05-08T09:03:49.941Z,37.68
2023-05-08T09:04:48.800Z,37.36
2023-05-08T09:05:49.155Z,37.04
2023-05-08T09:06:48.772Z,37.69
2023-05-08T09:07:48.799Z,37.68
2023-05-08T09:08:48.726Z,37.80
2023-05-08T09:09:48.717Z,37.81
2023-05-08T09:10:48.671Z,37.71
2023-05-08T09:11:48.642Z,37.66
2023-05-08T09:12:48.855Z,37.84
2023-05-08T09:13:48.599Z,37.90
2023-05-08T09:14:48.666Z,37.45
2023-05-08T09:15:48.713Z,37.39
2023-05-08T09:16:48.656Z,37.30
2023-05-08T09:17:48.606Z,37.16
2023-05-08T09:18:48.547Z,37.08
2023-05-08T09:19:48.563Z,37.33
2023-05-08T09:20:48.639Z,37.66
2023-05-08T09:21:48.560Z,37.78
2023-05-08T09:22:48.506Z,37.70
2023-05-08T09:23:48.534Z,37.56
2023-05-08T09:24:48.557Z,37.77
2023-05-08T09:25:48.549Z,38.09
2023-05-08T09:26:48.652Z,37.82
2023-05-08T09:27:49.162Z,37.87
2023-05-08T09:28:49.264Z,37.95
2023-05-08T09:29:48.491Z,38.15
2023-05-08T09:30:48.514Z,38.35
2023-05-08T09:31:48.584Z,38.28
2023-05-08T09:32:48.522Z,38.25
2023-05-08T09:33:48.461Z,38.28
2023-05-08T09:34:48.468Z,38.28
2023-05-08T09:35:48.513Z,38.37
2023-05-08T09:36:48.444Z,38.35
2023-05-08T09:37:48.441Z,38.16
2023-05-08T09:38:48.415Z,38.09
2023-05-08T09:39:48.392Z,38.16
2023-05-08T09:40:48.399Z,38.57
2023-05-08T09:41:48.683Z,38.24
2023-05-08T09:42:48.445Z,38.04
2023-05-08T09:43:48.421Z,37.99
2023-05-08T09:44:48.534Z,38.01
2023-05-08T09:45:48.463Z,37.86
2023-05-08T09:46:48.471Z,38.29
2023-05-08T09:47:48.515Z,38.33
2023-05-08T09:48:48.528Z,38.40
2023-05-08T09:49:48.702Z,37.84
2023-05-08T09:50:49.209Z,37.78
2023-05-08T09:51:48.585Z,37.78
2023-05-08T09:52:48.654Z,37.83
2023-05-08T09:53:48.668Z,37.79
2023-05-08T09:54:48.703Z,37.87
2023-05-08T09:55:48.748Z,37.78
2023-05-08T09:56:48.759Z,37.95
2023-05-08T09:57:48.717Z,38.34
2023-05-08T09:58:48.716Z,38.41
2023-05-08T09:59:48.747Z,38.28
2023-05-08T10:00:48.891Z,38.30
2023-05-08T10:01:49.198Z,38.11
2023-05-08T10:02:48.890Z,38.08
2023-05-08T10:03:48.950Z,38.06
2023-05-08T10:04:48.965Z,38.05
2023-05-08T10:05:48.975Z,37.90
2023-05-08T10:06:49.182Z,37.92
2023-05-08T10:07:49.015Z,38.01
2023-05-08T10:08:49.096Z,37.98
2023-05-08T10:09:50.944Z,37.92
2023-05-08T10:10:49.125Z,37.89
2023-05-08T10:11:49.202Z,37.78
2023-05-08T10:12:49.253Z,37.76
2023-05-08T10:13:50.268Z,37.79
2023-05-08T10:14:49.230Z,37.67
2023-05-08T10:15:49.240Z,37.76
2023-05-08T10:16:49.455Z,37.78
2023-05-08T10:17:49.323Z,37.84
2023-05-08T10:18:49.352Z,37.83
2023-05-08T10:19:49.379Z,37.74
2023-05-08T10:20:49.432Z,37.87
2023-05-08T10:21:49.469Z,37.81
2023-05-08T10:22:49.499Z,37.62
2023-05-08T10:23:49.516Z,37.42
2023-05-08T10:24:49.552Z,37.84
2023-05-08T10:25:49.627Z,37.37
2023-05-08T10:27:05.101Z,37.29
2023-05-08T10:27:50.604Z,37.21
2023-05-08T10:28:49.701Z,37.23
2023-05-08T10:29:49.577Z,37.58
2023-05-08T10:30:49.575Z,37.34
2023-05-08T10:31:49.540Z,37.68
2023-05-08T10:32:49.633Z,37.65
2023-05-08T10:33:49.478Z,37.62
2023-05-08T10:34:49.433Z,37.76
2023-05-08T10:35:49.437Z,37.29
2023-05-08T10:36:50.457Z,37.32
2023-05-08T10:37:49.391Z,37.13
2023-05-08T10:38:49.340Z,37.15
2023-05-08T10:39:49.356Z,37.51
2023-05-08T10:40:49.360Z,36.92
2023-05-08T10:41:49.728Z,36.87
2023-05-08T10:42:49.349Z,37.19
2023-05-08T10:43:49.333Z,37.35
2023-05-08T10:44:49.336Z,37.19
2023-05-08T10:45:49.412Z,37.13
2023-05-08T10:46:49.545Z,37.16
2023-05-08T10:47:49.389Z,37.26
2023-05-08T10:48:49.376Z,36.88
2023-05-08T10:49:49.441Z,37.22
2023-05-08T10:50:49.477Z,37.38
2023-05-08T10:51:49.491Z,37.24
2023-05-08T10:52:49.544Z,36.77
2023-05-08T10:53:49.628Z,36.45
2023-05-08T10:54:49.598Z,36.36
2023-05-08T10:55:49.585Z,36.35
2023-05-08T10:56:49.648Z,36.22
2023-05-08T10:57:49.686Z,36.28
2023-05-08T10:58:49.694Z,36.35
2023-05-08T10:59:49.740Z,36.43
2023-05-08T11:00:49.810Z,36.01
2023-05-08T11:01:49.870Z,36.38
2023-05-08T11:02:49.877Z,36.49
2023-05-08T11:03:49.995Z,36.51
2023-05-08T11:04:49.889Z,36.54
2023-05-08T11:05:49.964Z,36.65
2023-05-08T11:06:50.223Z,36.70
2023-05-08T11:07:49.982Z,36.75
2023-05-08T11:08:50.015Z,36.83
2023-05-08T11:09:49.996Z,36.86
2023-05-08T11:10:50.022Z,36.89
2023-05-08T11:11:50.259Z,37.00
2023-05-08T11:12:50.103Z,36.95
2023-05-08T11:13:50.084Z,37.06
2023-05-08T11:14:50.098Z,37.11
2023-05-08T11:15:50.208Z,37.16
2023-05-08T11:16:50.151Z,37.16
2023-05-08T11:17:50.236Z,37.22
2023-05-08T11:18:50.201Z,37.29
2023-05-08T11:19:50.222Z,37.32
2023-05-08T11:20:50.289Z,37.34
2023-05-08T11:21:50.190Z,37.37
2023-05-08T11:22:50.225Z,37.31
2023-05-08T11:23:50.221Z,37.31
2023-05-08T11:24:50.170Z,37.38
2023-05-08T11:25:50.249Z,37.38
2023-05-08T11:26:50.176Z,37.39
2023-05-08T11:27:50.236Z,37.41
2023-05-08T11:28:50.200Z,37.50
2023-05-08T11:29:50.211Z,36.66
2023-05-08T11:30:50.146Z,36.81
2023-05-08T11:31:50.232Z,36.71
2023-05-08T11:32:50.269Z,36.29
2023-05-08T11:33:50.169Z,36.81
2023-05-08T11:34:50.141Z,36.88
2023-05-08T11:35:50.146Z,36.76
2023-05-08T11:36:51.423Z,36.74
2023-05-08T11:37:50.131Z,36.65
2023-05-08T11:38:50.112Z,36.55
2023-05-08T11:39:50.124Z,36.61
2023-05-08T11:40:50.155Z,36.42
2023-05-08T11:41:50.098Z,36.39
2023-05-08T11:42:50.107Z,36.33
2023-05-08T11:43:50.096Z,36.30
2023-05-08T11:44:50.101Z,36.33
2023-05-08T11:45:50.081Z,36.32
2023-05-08T11:46:50.155Z,36.24
2023-05-08T11:47:50.158Z,36.24
2023-05-08T11:48:50.053Z,36.08
2023-05-08T11:49:50.070Z,36.11
2023-05-08T11:50:50.033Z,36.07
2023-05-08T11:51:50.054Z,35.84
2023-05-08T11:52:50.054Z,35.84
2023-05-08T11:53:50.040Z,35.79
2023-05-08T11:54:50.020Z,35.75
2023-05-08T11:55:50.032Z,35.55
2023-05-08T11:56:50.602Z,35.63
2023-05-08T11:57:50.071Z,35.51
2023-05-08T11:58:50.068Z,35.50
2023-05-08T11:59:50.009Z,35.58
2023-05-08T12:00:50.137Z,35.60
2023-05-08T12:02:06.754Z,35.62
2023-05-08T12:02:51.103Z,35.66
2023-05-08T12:03:50.180Z,35.68
2023-05-08T12:04:49.990Z,35.54
2023-05-08T12:05:49.935Z,35.52
2023-05-08T12:06:49.846Z,35.57
2023-05-08T12:07:49.822Z,35.54
2023-05-08T12:08:49.784Z,35.39
2023-05-08T12:09:49.766Z,35.46
2023-05-08T12:10:49.726Z,35.42
2023-05-08T12:11:49.675Z,35.33
2023-05-08T12:12:49.671Z,35.35
2023-05-08T12:13:49.613Z,35.28
2023-05-08T12:14:49.578Z,35.14
2023-05-08T12:15:49.545Z,35.10
2023-05-08T12:16:49.543Z,35.09
2023-05-08T12:17:49.536Z,34.95
2023-05-08T12:18:49.455Z,34.92
2023-05-08T12:19:49.470Z,34.97
2023-05-08T12:20:49.454Z,35.00
2023-05-08T12:21:49.483Z,34.90
2023-05-08T12:22:49.455Z,34.93
2023-05-08T12:23:49.439Z,34.83
2023-05-08T12:24:49.548Z,34.80
2023-05-08T12:25:49.487Z,34.79
2023-05-08T12:26:49.481Z,34.81
2023-05-08T12:27:49.477Z,34.76
2023-05-08T12:28:49.493Z,34.76
2023-05-08T12:29:49.454Z,34.74
2023-05-08T12:30:49.539Z,34.75
2023-05-08T12:31:49.486Z,34.66
2023-05-08T12:32:49.486Z,34.68
2023-05-08T12:33:49.445Z,34.62
2023-05-08T12:34:49.459Z,34.52
2023-05-08T12:35:49.479Z,34.54
2023-05-08T12:36:49.490Z,34.48
2023-05-08T12:37:49.476Z,34.49
2023-05-08T12:38:49.461Z,34.44
2023-05-08T12:39:49.451Z,34.55
2023-05-08T12:40:49.549Z,34.41
2023-05-08T12:41:49.498Z,34.44
2023-05-08T12:42:49.528Z,34.41
2023-05-08T12:43:49.454Z,35.51
2023-05-08T12:44:49.498Z,36.57
2023-05-08T12:45:49.479Z,37.29
2023-05-08T12:46:49.525Z,35.99
2023-05-08T12:47:49.628Z,36.95
2023-05-08T12:48:49.488Z,37.06
2023-05-08T12:49:49.528Z,36.49
2023-05-08T12:50:49.495Z,36.65
2023-05-08T12:51:49.543Z,37.18
2023-05-08T12:52:51.354Z,37.03